createdAt,value
2018-03-04T00:02:06.275Z,98478.45
2018-03-04T00:04:33.832Z,98478.91
2018-03-04T00:07:01.307Z,98481.02
2018-03-04T00:09:28.849Z,98478.66
2018-03-04T00:11:56.430Z,98480.04
2018-03-04T00:14:23.955Z,98488.42
2018-03-04T00:16:51.468Z,98484.98
2018-03-04T00:19:18.931Z,98480.09
2018-03-04T00:21:46.426Z,98484.77
2018-03-04T00:24:13.934Z,98494.84
2018-03-04T00:26:41.447Z,98495.16
2018-03-04T00:29:09.163Z,98504.28
2018-03-04T00:31:36.718Z,98503.73
2018-03-04T00:34:04.195Z,98508.82
2018-03-04T00:36:31.678Z,98508.80
2018-03-04T00:38:59.198Z,98516.97
2018-03-04T00:41:26.679Z,98513.27
2018-03-04T00:43:55.372Z,98507.28
2018-03-04T00:46:22.943Z,98520.44
2018-03-04T00:48:50.426Z,98515.19
2018-03-04T00:51:17.944Z,98516.49
2018-03-04T00:53:45.462Z,98515.81
2018-03-04T00:56:12.962Z,98519.50
2018-03-04T00:58:40.801Z,98520.39
2018-03-04T01:01:08.350Z,98519.17
2018-03-04T01:03:35.825Z,98531.98
2018-03-04T01:06:07.374Z,98528.16
2018-03-04T01:08:35.159Z,98529.27
2018-03-04T01:11:02.724Z,98525.98
2018-03-04T01:13:30.244Z,98525.98
2018-03-04T01:15:57.741Z,98524.70
2018-03-04T01:18:25.981Z,98524.94
2018-03-04T01:20:53.454Z,98537.41
2018-03-04T01:23:20.976Z,98541.53
2018-03-04T01:25:48.499Z,98532.77
2018-03-04T01:28:16.858Z,98535.66
2018-03-04T01:30:44.455Z,98541.09
2018-03-04T01:35:38.744Z,98538.22
2018-03-04T01:38:06.253Z,98538.12
2018-03-04T01:40:33.833Z,98543.52
2018-03-04T01:43:01.440Z,98539.70
2018-03-04T01:45:28.967Z,98543.73
2018-03-04T01:47:56.503Z,98552.73
2018-03-04T01:50:24.019Z,98555.03
2018-03-04T01:52:51.508Z,98546.65
2018-03-04T01:55:19.095Z,98553.34
2018-03-04T01:57:46.578Z,98546.03
2018-03-04T02:00:14.119Z,98548.91
2018-03-04T02:02:41.588Z,98545.80
2018-03-04T02:05:09.105Z,98550.71
2018-03-04T02:07:36.568Z,98546.17
2018-03-04T02:10:04.128Z,98548.59
2018-03-04T02:12:31.617Z,98556.30
2018-03-04T02:14:59.160Z,98559.80
2018-03-04T02:17:26.651Z,98562.16
2018-03-04T02:19:54.138Z,98565.12
2018-03-04T02:22:21.617Z,98570.40
2018-03-04T02:24:49.411Z,98562.39
2018-03-04T02:27:16.936Z,98567.33
2018-03-04T02:29:44.425Z,98572.09
2018-03-04T02:32:12.342Z,98572.68
2018-03-04T02:34:39.832Z,98571.52
2018-03-04T02:37:07.394Z,98571.19
2018-03-04T02:39:34.958Z,98569.00
2018-03-04T02:42:02.447Z,98566.23
2018-03-04T02:44:30.735Z,98575.33
2018-03-04T02:46:58.205Z,98583.43
2018-03-04T02:49:25.703Z,98586.30
2018-03-04T02:51:53.206Z,98596.03
2018-03-04T02:54:20.675Z,98598.25
2018-03-04T02:56:48.963Z,98601.14
2018-03-04T02:59:16.455Z,98582.04
2018-03-04T03:01:43.926Z,98585.59
2018-03-04T03:04:11.449Z,98594.41
2018-03-04T03:06:38.941Z,98590.63
2018-03-04T03:09:06.402Z,98601.06
2018-03-04T03:11:33.871Z,98597.60
2018-03-04T03:14:01.349Z,98603.12
2018-03-04T03:16:29.606Z,98605.66
2018-03-04T03:18:57.076Z,98609.64
2018-03-04T03:21:24.525Z,98607.20
2018-03-04T03:23:51.994Z,98607.98
2018-03-04T03:26:19.490Z,98610.91
2018-03-04T03:28:46.952Z,98609.59
2018-03-04T03:31:14.445Z,98620.69
2018-03-04T03:33:41.927Z,98624.45
2018-03-04T03:36:09.410Z,98626.36
2018-03-04T03:38:37.058Z,98628.63
2018-03-04T03:41:04.506Z,98622.72
2018-03-04T03:43:31.967Z,98624.59
2018-03-04T03:45:59.495Z,98625.80
2018-03-04T03:48:27.408Z,98630.03
2018-03-04T03:50:54.895Z,98633.73
2018-03-04T03:53:22.376Z,98638.27
2018-03-04T03:55:49.840Z,98641.16
2018-03-04T03:58:17.299Z,98640.00
2018-03-04T04:00:44.843Z,98650.41
2018-03-04T04:03:12.616Z,98646.95
2018-03-04T04:05:40.208Z,98645.45
2018-03-04T04:08:07.682Z,98649.02
2018-03-04T04:10:35.136Z,98643.96
2018-03-04T04:13:02.806Z,98643.91
2018-03-04T04:15:30.268Z,98650.95
2018-03-04T04:17:57.739Z,98656.01
2018-03-04T04:20:25.222Z,98663.46
2018-03-04T04:22:52.712Z,98660.64
2018-03-04T04:25:20.176Z,98666.45
2018-03-04T04:27:47.654Z,98670.45
2018-03-04T04:30:15.122Z,98672.55
2018-03-04T04:32:42.684Z,98667.13
2018-03-04T04:35:10.228Z,98669.20
2018-03-04T04:37:37.756Z,98664.84
2018-03-04T04:40:05.234Z,98663.82
2018-03-04T04:42:32.711Z,98669.59
2018-03-04T04:45:00.179Z,98666.84
2018-03-04T04:47:27.660Z,98677.50
2018-03-04T04:49:55.136Z,98685.11
2018-03-04T04:52:22.616Z,98677.80
2018-03-04T04:54:50.089Z,98677.87
2018-03-04T04:57:17.677Z,98676.95
2018-03-04T04:59:45.154Z,98667.70
2018-03-04T05:02:12.627Z,98673.83
2018-03-04T05:04:40.096Z,98667.98
2018-03-04T05:07:07.646Z,98669.47
2018-03-04T05:09:35.123Z,98673.83
2018-03-04T05:12:02.640Z,98677.83
2018-03-04T05:14:30.350Z,98680.81
2018-03-04T05:16:57.839Z,98684.92
2018-03-04T05:19:25.357Z,98685.02
2018-03-04T05:21:52.823Z,98685.08
2018-03-04T05:24:20.292Z,98686.03
2018-03-04T05:26:47.744Z,98692.17
2018-03-04T05:29:16.091Z,98686.53
2018-03-04T05:31:43.556Z,98687.87
2018-03-04T05:34:11.079Z,98692.98
2018-03-04T05:36:38.693Z,98699.45
2018-03-04T05:39:06.370Z,98697.28
2018-03-04T05:41:33.851Z,98701.48
2018-03-04T05:44:01.315Z,98698.03
2018-03-04T05:46:29.663Z,98703.13
2018-03-04T05:48:57.123Z,98699.91
2018-03-04T05:51:24.608Z,98698.63
2018-03-04T05:53:52.114Z,98701.74
2018-03-04T05:56:19.616Z,98708.66
2018-03-04T05:58:47.108Z,98705.92
2018-03-04T06:01:14.564Z,98717.36
2018-03-04T06:03:42.087Z,98724.66
2018-03-04T06:06:09.543Z,98733.42
2018-03-04T06:08:37.207Z,98729.97
2018-03-04T06:11:04.743Z,98739.44
2018-03-04T06:13:32.202Z,98738.02
2018-03-04T06:15:59.675Z,98737.52
2018-03-04T06:18:27.212Z,98737.91
2018-03-04T06:20:54.696Z,98737.20
2018-03-04T06:23:22.400Z,98741.32
2018-03-04T06:25:49.960Z,98740.11
2018-03-04T06:28:17.453Z,98748.34
2018-03-04T06:30:44.968Z,98742.11
2018-03-04T06:33:12.445Z,98753.39
2018-03-04T06:35:39.938Z,98756.44
2018-03-04T06:38:07.419Z,98755.27
2018-03-04T06:40:35.961Z,98763.70
2018-03-04T06:43:03.425Z,98763.12
2018-03-04T06:45:30.895Z,98768.00
2018-03-04T06:47:58.448Z,98769.08
2018-03-04T06:50:25.914Z,98769.45
2018-03-04T06:52:53.387Z,98771.58
2018-03-04T06:55:20.865Z,98773.36
2018-03-04T06:57:48.331Z,98775.19
2018-03-04T07:00:15.814Z,98778.70
2018-03-04T07:02:43.299Z,98776.22
2018-03-04T07:05:10.794Z,98775.25
2018-03-04T07:07:38.248Z,98783.23
2018-03-04T07:10:05.714Z,98783.91
2018-03-04T07:12:33.167Z,98780.19
2018-03-04T07:15:00.635Z,98782.51
2018-03-04T07:17:28.162Z,98770.17
2018-03-04T07:19:55.621Z,98764.95
2018-03-04T07:22:23.132Z,98768.39
2018-03-04T07:24:50.607Z,98763.73
2018-03-04T07:27:18.216Z,98760.53
2018-03-04T07:29:45.710Z,98757.91
2018-03-04T07:32:13.323Z,98756.06
2018-03-04T07:34:40.820Z,98750.80
2018-03-04T07:37:08.358Z,98757.35
2018-03-04T07:39:35.852Z,98755.76
2018-03-04T07:42:03.310Z,98762.17
2018-03-04T07:44:31.940Z,98761.11
2018-03-04T07:46:59.501Z,98760.38
2018-03-04T07:49:27.015Z,98767.80
2018-03-04T07:51:54.858Z,98763.50
2018-03-04T07:54:22.526Z,98768.13
2018-03-04T07:56:50.471Z,98765.53
2018-03-04T07:59:17.927Z,98759.39
2018-03-04T08:01:45.430Z,98760.93
2018-03-04T08:04:12.942Z,98764.83
2018-03-04T08:06:40.445Z,98767.03
2018-03-04T08:09:07.953Z,98754.72
2018-03-04T08:11:35.413Z,98759.12
2018-03-04T08:14:02.979Z,98754.23
2018-03-04T08:16:30.596Z,98753.66
2018-03-04T08:18:58.051Z,98758.02
2018-03-04T08:21:25.538Z,98753.66
2018-03-04T08:23:53.016Z,98752.33
2018-03-04T08:26:32.403Z,98749.86
2018-03-04T08:28:59.887Z,98752.60
2018-03-04T08:31:27.350Z,98752.70
2018-03-04T08:33:54.866Z,98753.22
2018-03-04T08:36:22.331Z,98749.22
2018-03-04T08:38:49.792Z,98756.67
2018-03-04T08:41:17.348Z,98753.08
2018-03-04T08:43:44.830Z,98752.34
2018-03-04T08:46:12.294Z,98747.65
2018-03-04T08:48:39.860Z,98750.05
2018-03-04T08:51:07.423Z,98745.55
2018-03-04T08:53:34.887Z,98748.61
2018-03-04T08:56:02.684Z,98746.08
2018-03-04T08:58:30.148Z,98748.70
2018-03-04T09:00:57.599Z,98753.58
2018-03-04T09:03:25.176Z,98748.40
2018-03-04T09:05:52.650Z,98754.77
2018-03-04T09:08:20.143Z,98757.92
2018-03-04T09:10:47.620Z,98757.08
2018-03-04T09:13:15.127Z,98756.65
2018-03-04T09:15:42.615Z,98752.47
2018-03-04T09:18:10.252Z,98752.19
2018-03-04T09:20:37.761Z,98752.08
2018-03-04T09:23:05.250Z,98743.94
2018-03-04T09:25:32.765Z,98740.25
2018-03-04T09:28:00.208Z,98743.19
2018-03-04T09:30:27.772Z,98741.92
2018-03-04T09:32:55.345Z,98745.44
2018-03-04T09:35:22.855Z,98741.66
2018-03-04T09:37:50.373Z,98740.81
2018-03-04T09:40:17.880Z,98742.59
2018-03-04T09:42:45.707Z,98745.55
2018-03-04T09:45:13.488Z,98750.63
2018-03-04T09:47:40.978Z,98747.69
2018-03-04T09:50:08.466Z,98748.98
2018-03-04T09:52:35.932Z,98740.56
2018-03-04T09:55:03.412Z,98743.14
2018-03-04T09:57:30.914Z,98741.09
2018-03-04T09:59:58.470Z,98734.32
2018-03-04T10:02:26.030Z,98735.62
2018-03-04T10:04:53.503Z,98727.63
2018-03-04T10:07:21.458Z,98727.60
2018-03-04T10:09:48.938Z,98732.25
2018-03-04T10:12:16.416Z,98720.84
2018-03-04T10:14:44.444Z,98723.83
2018-03-04T10:17:11.904Z,98715.80
2018-03-04T10:19:39.381Z,98720.01
2018-03-04T10:22:06.914Z,98719.62
2018-03-04T10:24:34.467Z,98715.38
2018-03-04T10:27:01.968Z,98722.14
2018-03-04T10:29:29.478Z,98713.70
2018-03-04T10:31:56.980Z,98718.76
2018-03-04T10:34:24.457Z,98703.53
2018-03-04T10:36:51.969Z,98703.53
2018-03-04T10:39:19.501Z,98710.70
2018-03-04T10:41:47.019Z,98706.52
2018-03-04T10:44:15.311Z,98705.20
2018-03-04T10:46:42.853Z,98693.78
2018-03-04T10:49:10.320Z,98695.91
2018-03-04T10:51:37.776Z,98694.24
2018-03-04T10:54:05.750Z,98690.48
2018-03-04T10:56:33.917Z,98689.16
2018-03-04T10:59:01.472Z,98687.06
2018-03-04T11:01:29.675Z,98677.80
2018-03-04T11:03:57.168Z,98674.89
2018-03-04T11:06:25.337Z,98664.38
2018-03-04T11:08:52.860Z,98661.02
2018-03-04T11:11:20.412Z,98656.44
2018-03-04T11:13:47.915Z,98656.41
2018-03-04T11:16:15.551Z,98664.83
2018-03-04T11:18:43.042Z,98657.23
2018-03-04T11:21:10.536Z,98666.03
2018-03-04T11:23:38.283Z,98674.01
2018-03-04T11:26:06.779Z,98672.77
2018-03-04T11:28:34.755Z,98668.50
2018-03-04T11:31:02.318Z,98670.16
2018-03-04T11:33:29.830Z,98665.95
2018-03-04T11:35:57.323Z,98661.66
2018-03-04T11:38:26.244Z,98656.67
2018-03-04T11:40:54.638Z,98660.49
2018-03-04T11:43:24.481Z,98659.20
2018-03-04T11:45:52.407Z,98661.33
2018-03-04T11:48:19.916Z,98651.56
2018-03-04T11:50:47.412Z,98650.34
2018-03-04T11:53:14.984Z,98657.52
2018-03-04T11:55:42.470Z,98658.76
2018-03-04T11:58:10.896Z,98654.88
2018-03-04T12:00:38.398Z,98656.09
2018-03-04T12:03:07.236Z,98647.10
2018-03-04T12:05:34.929Z,98648.25
2018-03-04T12:08:02.436Z,98646.81
2018-03-04T12:10:30.302Z,98644.72
2018-03-04T12:12:57.792Z,98638.18
2018-03-04T12:15:25.279Z,98630.86
2018-03-04T12:17:52.764Z,98629.23
2018-03-04T12:20:20.310Z,98635.41
2018-03-04T12:22:47.816Z,98623.14
2018-03-04T12:25:15.459Z,98618.41
2018-03-04T12:27:43.697Z,98618.69
2018-03-04T12:30:12.792Z,98620.72
2018-03-04T12:32:40.440Z,98621.84
2018-03-04T12:35:08.137Z,98612.75
2018-03-04T12:40:12.069Z,98612.27
2018-03-04T12:42:39.594Z,98596.99
2018-03-04T12:45:07.119Z,98592.98
2018-03-04T12:47:35.424Z,98591.63
2018-03-04T12:50:02.919Z,98590.59
2018-03-04T12:52:30.690Z,98587.14
2018-03-04T12:54:58.771Z,98587.58
2018-03-04T12:57:26.347Z,98578.52
2018-03-04T12:59:53.780Z,98580.91
2018-03-04T13:02:21.354Z,98576.31
2018-03-04T13:04:48.854Z,98582.84
2018-03-04T13:07:16.378Z,98578.53
2018-03-04T13:12:16.409Z,98576.88
2018-03-04T13:14:44.899Z,98580.16
2018-03-04T13:27:14.335Z,98596.90
2018-03-04T13:29:43.979Z,98597.84
2018-03-04T13:32:12.641Z,98595.66
2018-03-04T13:34:41.902Z,98584.48
2018-03-04T13:37:10.949Z,98577.21
2018-03-04T13:39:40.238Z,98573.45
2018-03-04T13:42:09.152Z,98574.55
2018-03-04T13:57:28.147Z,98571.32
2018-03-04T13:59:56.267Z,98568.33
2018-03-04T14:02:23.977Z,98564.48
2018-03-04T14:04:51.682Z,98562.40
2018-03-04T14:07:19.356Z,98552.67
2018-03-04T14:09:46.994Z,98549.12
2018-03-04T14:12:14.720Z,98544.38
2018-03-04T14:14:42.637Z,98542.73
2018-03-04T14:17:10.844Z,98534.55
2018-03-04T14:22:34.312Z,98536.59
2018-03-04T14:27:39.054Z,98526.38
2018-03-04T14:30:06.670Z,98521.39
2018-03-04T14:32:34.254Z,98517.36
2018-03-04T14:35:01.760Z,98514.30
2018-03-04T14:37:29.270Z,98513.64
2018-03-04T14:39:56.884Z,98508.42
2018-03-04T14:42:24.928Z,98513.16
2018-03-04T14:44:54.537Z,98505.89
2018-03-04T14:47:22.640Z,98503.12
2018-03-04T14:49:52.866Z,98497.20
2018-03-04T14:52:21.475Z,98512.55
2018-03-04T14:54:51.722Z,98506.41
2018-03-04T14:57:19.932Z,98500.34
2018-03-04T14:59:51.360Z,98499.63
2018-03-04T15:02:19.736Z,98483.63
2018-03-04T15:12:33.109Z,98483.50
2018-03-04T15:15:01.914Z,98475.64
2018-03-04T15:17:29.608Z,98485.67
2018-03-04T15:19:58.270Z,98483.63
2018-03-04T15:22:26.027Z,98483.07
2018-03-04T15:24:53.733Z,98488.22
2018-03-04T15:27:21.312Z,98482.77
2018-03-04T15:29:49.093Z,98484.60
2018-03-04T15:32:17.026Z,98490.01
2018-03-04T15:34:46.426Z,98487.36
2018-03-04T15:37:16.243Z,98491.01
2018-03-04T15:42:17.304Z,98486.43
2018-03-04T15:44:45.050Z,98494.42
2018-03-04T15:49:58.490Z,98496.09
2018-03-04T15:52:32.728Z,98501.27
2018-03-04T15:55:00.975Z,98502.98
2018-03-04T16:16:06.013Z,98499.61
2018-03-04T16:18:45.086Z,98487.08
2018-03-04T16:21:12.876Z,98495.95
2018-03-04T16:23:40.909Z,98509.50
2018-03-04T16:26:09.183Z,98510.78
2018-03-04T16:28:37.033Z,98510.75
2018-03-04T16:31:04.875Z,98504.87
2018-03-04T16:33:33.481Z,98503.98
2018-03-04T16:36:01.094Z,98491.77
2018-03-04T16:38:29.977Z,98492.97
2018-03-04T16:40:57.804Z,98496.28
2018-03-04T16:43:25.359Z,98491.58
2018-03-04T16:45:52.916Z,98493.20
2018-03-04T16:48:20.564Z,98493.14
2018-03-04T16:50:48.195Z,98491.38
2018-03-04T16:53:15.744Z,98492.61
2018-03-04T16:55:43.852Z,98496.33
2018-03-04T16:58:11.374Z,98503.41
2018-03-04T17:00:38.969Z,98504.18
2018-03-04T17:03:07.047Z,98502.91
2018-03-04T17:05:34.640Z,98500.70
2018-03-04T17:08:02.160Z,98495.66
2018-03-04T17:10:30.232Z,98504.81
2018-03-04T17:12:57.767Z,98497.64
2018-03-04T17:15:25.348Z,98491.79
2018-03-04T17:17:52.983Z,98497.19
2018-03-04T17:20:20.622Z,98498.00
2018-03-04T17:22:48.235Z,98505.09
2018-03-04T17:25:15.844Z,98500.86
2018-03-04T17:27:43.482Z,98502.91
2018-03-04T17:30:11.100Z,98502.47
2018-03-04T17:32:38.832Z,98505.05
2018-03-04T17:35:07.326Z,98510.88
2018-03-04T17:40:46.647Z,98497.38
2018-03-04T18:00:32.201Z,98481.67
2018-03-04T18:11:57.427Z,98481.06
2018-03-04T18:14:25.206Z,98474.73
2018-03-04T18:19:26.216Z,98462.32
2018-03-04T18:21:54.129Z,98466.52
2018-03-04T18:24:23.240Z,98462.72
2018-03-04T18:26:50.998Z,98456.40
2018-03-04T18:29:22.195Z,98459.78
2018-03-04T18:31:54.728Z,98459.42
2018-03-04T18:34:23.573Z,98448.50
2018-03-04T18:39:24.531Z,98449.40
2018-03-04T18:41:52.637Z,98442.62
2018-03-04T18:44:20.468Z,98451.38
2018-03-04T18:59:58.833Z,98440.88
2018-03-04T19:02:26.441Z,98435.88
2018-03-04T19:07:34.308Z,98442.07
2018-03-04T19:10:40.418Z,98448.11
2018-03-04T19:13:18.463Z,98443.61
2018-03-04T19:18:21.739Z,98438.09
2018-03-04T19:20:49.399Z,98435.59
2018-03-04T19:23:21.941Z,98437.32
2018-03-04T19:25:49.734Z,98435.62
2018-03-04T19:28:17.726Z,98436.39
2018-03-04T19:30:47.194Z,98438.02
2018-03-04T19:33:15.004Z,98433.82
2018-03-04T19:35:43.228Z,98429.50
2018-03-04T19:38:11.042Z,98420.21
2018-03-04T19:40:38.668Z,98429.80
2018-03-04T19:43:06.348Z,98428.14
2018-03-04T19:45:34.078Z,98430.97
2018-03-04T19:48:01.901Z,98431.77
2018-03-04T19:50:30.823Z,98438.92
2018-03-04T19:52:58.825Z,98423.44
2018-03-04T19:55:26.388Z,98425.95
2018-03-04T19:57:55.727Z,98428.02
2018-03-04T20:00:23.610Z,98429.27
2018-03-04T20:02:51.267Z,98425.41
2018-03-04T20:05:23.674Z,98423.73
2018-03-04T20:07:52.656Z,98426.30
2018-03-04T20:12:55.807Z,98425.77
2018-03-04T20:15:23.725Z,98426.66
2018-03-04T20:17:51.807Z,98432.86
2018-03-04T20:20:19.686Z,98431.27
2018-03-04T20:22:47.340Z,98430.12
2018-03-04T20:25:16.201Z,98427.85
2018-03-04T20:27:44.428Z,98433.20
2018-03-04T20:30:15.076Z,98427.81
2018-03-04T20:32:45.565Z,98430.03
2018-03-04T20:41:05.481Z,98433.48
2018-03-04T20:49:35.157Z,98440.14
2018-03-04T21:04:04.440Z,98430.08
2018-03-04T21:12:42.027Z,98431.00
2018-03-04T21:15:11.082Z,98426.00
2018-03-04T21:17:47.386Z,98424.28
2018-03-04T22:14:08.402Z,98397.66
2018-03-04T22:19:39.208Z,98397.23
2018-03-04T22:24:57.717Z,98405.34
2018-03-04T22:27:25.223Z,98401.95
2018-03-04T22:29:52.974Z,98402.45
2018-03-04T22:32:20.515Z,98410.81
2018-03-04T22:34:48.009Z,98411.28
2018-03-04T22:37:15.540Z,98413.81
2018-03-04T22:39:43.019Z,98409.17
2018-03-04T22:42:10.611Z,98405.90
2018-03-04T22:44:38.155Z,98399.16
2018-03-04T22:47:05.609Z,98408.43
2018-03-04T22:49:34.154Z,98401.75
2018-03-04T22:52:01.636Z,98404.66
2018-03-04T22:54:29.115Z,98397.66
2018-03-04T22:56:56.579Z,98391.76
2018-03-04T22:59:24.087Z,98388.41
2018-03-04T23:01:52.295Z,98393.03
2018-03-04T23:04:19.823Z,98390.97
2018-03-04T23:06:48.427Z,98383.02
2018-03-04T23:09:16.218Z,98394.77
2018-03-04T23:11:43.713Z,98384.29
2018-03-04T23:14:11.290Z,98386.80
2018-03-04T23:16:39.059Z,98382.59
2018-03-04T23:19:08.057Z,98372.18
2018-03-04T23:21:35.876Z,98380.57
2018-03-04T23:24:03.370Z,98386.86
2018-03-04T23:26:34.544Z,98384.80
2018-03-04T23:29:02.012Z,98391.06
2018-03-04T23:31:30.932Z,98389.41
2018-03-04T23:33:58.495Z,98390.23
2018-03-04T23:36:28.497Z,98380.60
2018-03-04T23:38:57.157Z,98388.98
2018-03-04T23:41:24.889Z,98389.01
2018-03-04T23:43:52.494Z,98393.66
2018-03-04T23:46:19.963Z,98388.17
2018-03-04T23:48:48.035Z,98392.39
2018-03-04T23:51:16.317Z,98386.48
2018-03-04T23:53:43.781Z,98392.41
2018-03-04T23:56:11.792Z,98384.45
2018-03-04T23:58:39.360Z,98383.60
